Time;durP1;ratioP1;P1;durP2;ratioP2;P2;SDS_P1;SDS_P2;PMS_P1;PMS_P2;Temp;Humidity;BMP_temperature;BMP_pressure;BME280_temperature;BME280_humidity;BME280_pressure;Samples;Min_cycle;Max_cycle;Signal;HPM_P1;HPM_P2
2023/08/01 00:01:45;;;;;;;2.33;1.60;;;;;;;19.32;61.56;94488.00;5092983;28;20072;-72
2023/08/01 00:04:10;;;;;;;2.28;1.77;;;;;;;19.24;62.03;94484.69;5094501;28;20085;-72
2023/08/01 00:06:36;;;;;;;5.90;1.95;;;;;;;19.18;61.83;94476.53;5075911;28;20039;-72
2023/08/01 00:09:01;;;;;;;4.88;2.00;;;;;;;19.35;61.30;94484.19;5092738;28;20529;-72
2023/08/01 00:11:26;;;;;;;2.90;2.00;;;;;;;19.34;61.31;94485.19;5092776;28;20028;-72
2023/08/01 00:13:52;;;;;;;3.58;1.70;;;;;;;19.28;61.41;94480.66;5092793;28;20061;-72
2023/08/01 00:16:17;;;;;;;2.20;1.88;;;;;;;19.19;61.52;94478.19;5075665;28;20085;-72
2023/08/01 00:18:43;;;;;;;2.47;1.92;;;;;;;19.17;61.51;94477.56;5093781;28;20512;-72
2023/08/01 00:21:11;;;;;;;2.40;1.92;;;;;;;19.24;61.33;94474.16;5092435;28;20028;-73
2023/08/01 00:23:36;;;;;;;4.28;2.38;;;;;;;19.13;61.52;94472.84;5092673;28;20482;-72
2023/08/01 00:26:02;;;;;;;3.22;1.95;;;;;;;19.13;61.90;94463.13;5092494;28;20039;-72
2023/08/01 00:28:27;;;;;;;3.28;2.00;;;;;;;19.09;61.62;94469.78;5092444;28;20024;-72
2023/08/01 00:31:02;;;;;;;2.60;2.00;;;;;;;18.95;62.02;94475.91;5090459;28;20078;-72
2023/08/01 00:33:28;;;;;;;2.67;2.20;;;;;;;18.74;62.75;94474.06;5091254;28;20032;-72
2023/08/01 00:35:54;;;;;;;2.47;2.08;;;;;;;18.94;62.14;94471.63;5074646;28;20039;-72
2023/08/01 00:38:19;;;;;;;3.65;2.08;;;;;;;19.10;61.66;94484.56;5091268;28;20027;-72
2023/08/01 00:40:44;;;;;;;3.20;2.50;;;;;;;18.92;62.11;94482.34;5074582;28;20406;-72
2023/08/01 00:43:10;;;;;;;2.80;2.17;;;;;;;18.87;62.21;94479.47;5092002;28;20036;-72
2023/08/01 00:45:35;;;;;;;5.10;2.30;;;;;;;19.02;62.50;94483.88;5091891;28;20028;-72
2023/08/01 00:48:01;;;;;;;2.97;2.30;;;;;;;18.84;62.53;94484.28;5091896;28;20043;-72
2023/08/01 00:50:26;;;;;;;2.58;2.03;;;;;;;18.85;62.71;94484.09;5075119;28;20036;-73
2023/08/01 00:52:51;;;;;;;3.38;2.10;;;;;;;18.69;62.91;94482.47;5091937;28;20028;-72
2023/08/01 00:55:17;;;;;;;2.55;1.88;;;;;;;18.39;63.40;94450.16;5090607;28;20105;-72
2023/08/01 00:57:43;;;;;;;3.03;2.00;;;;;;;18.60;63.33;94478.31;5091868;28;20036;-73
2023/08/01 01:00:09;;;;;;;3.03;2.08;;;;;;;18.43;63.87;94474.25;5075094;28;20035;-72
2023/08/01 01:02:34;;;;;;;2.60;2.10;;;;;;;18.37;63.96;94467.13;5093157;28;20039;-72
2023/08/01 01:05:00;;;;;;;2.92;2.13;;;;;;;18.37;63.88;94467.13;5074962;28;20029;-72
2023/08/01 01:07:26;;;;;;;2.50;2.08;;;;;;;18.28;64.35;94469.84;5091473;28;20127;-72
2023/08/01 01:09:52;;;;;;;3.38;2.00;;;;;;;18.25;64.09;94443.91;5092851;28;20040;-72
2023/08/01 01:12:17;;;;;;;2.60;2.00;;;;;;;18.45;64.28;94453.88;5091562;28;20036;-72
2023/08/01 01:14:42;;;;;;;3.40;1.95;;;;;;;18.30;64.26;94459.97;5091515;28;20025;-72
2023/08/01 01:17:08;;;;;;;3.53;1.90;;;;;;;18.04;65.00;94446.47;5091770;28;20028;-72
2023/08/01 01:19:33;;;;;;;4.13;2.08;;;;;;;18.22;65.09;94467.94;5074405;28;20039;-72
2023/08/01 01:22:02;;;;;;;3.95;1.90;;;;;;;18.18;65.19;94464.03;5091389;28;20078;-72
2023/08/01 01:24:28;;;;;;;3.22;2.45;;;;;;;18.19;65.26;94457.78;5091239;28;20489;-72
2023/08/01 01:26:54;;;;;;;3.30;2.10;;;;;;;18.27;64.75;94454.22;5091268;28;20024;-72
2023/08/01 01:29:20;;;;;;;2.83;2.28;;;;;;;18.15;64.99;94438.13;5074375;28;20180;-73
2023/08/01 01:31:45;;;;;;;2.75;2.10;;;;;;;18.27;64.79;94441.91;5057599;28;20028;-72
2023/08/01 01:34:11;;;;;;;3.58;2.10;;;;;;;18.30;64.33;94441.56;5091217;28;20032;-72
2023/08/01 01:36:36;;;;;;;4.78;2.17;;;;;;;18.38;64.45;94447.69;5074249;28;20027;-72
2023/08/01 01:39:02;;;;;;;2.75;2.00;;;;;;;18.39;64.54;94447.53;5092735;28;20031;-72
2023/08/01 01:41:27;;;;;;;3.20;1.92;;;;;;;18.47;64.26;94446.59;5091041;28;20020;-72
2023/08/01 01:43:52;;;;;;;2.38;1.88;;;;;;;18.56;63.83;94450.75;5074129;28;20036;-72
2023/08/01 01:46:18;;;;;;;3.28;2.47;;;;;;;18.59;63.74;94450.38;5074472;28;20487;-72
2023/08/01 01:48:43;;;;;;;3.97;2.25;;;;;;;18.56;63.73;94449.94;5072191;28;20029;-72
2023/08/01 01:51:08;;;;;;;4.53;2.05;;;;;;;18.64;63.69;94436.69;5071814;28;20033;-72
2023/08/01 01:53:34;;;;;;;2.33;2.00;;;;;;;18.53;63.50;94440.63;5053806;28;20035;-72
2023/08/01 01:55:59;;;;;;;3.72;2.30;;;;;;;18.59;63.52;94445.13;5071743;28;20434;-72
2023/08/01 01:58:25;;;;;;;2.58;1.83;;;;;;;18.64;63.68;94452.47;5070507;28;20032;-72
2023/08/01 02:00:50;;;;;;;2.70;1.90;;;;;;;18.68;63.65;94454.53;5070487;28;20021;-72
2023/08/01 02:03:15;;;;;;;3.53;2.08;;;;;;;18.87;63.20;94460.22;5070341;28;20063;-72
2023/08/01 02:05:41;;;;;;;2.85;2.17;;;;;;;18.72;63.11;94440.03;5071312;28;20651;-72
2023/08/01 02:08:06;;;;;;;2.65;2.08;;;;;;;18.72;62.98;94445.28;5071401;28;20048;-72
2023/08/01 02:10:32;;;;;;;4.25;1.90;;;;;;;18.68;63.23;94451.09;5071446;28;20529;-72
2023/08/01 02:12:57;;;;;;;3.30;1.88;;;;;;;18.58;63.46;94448.72;5071511;28;20029;-72
2023/08/01 02:15:22;;;;;;;2.50;2.10;;;;;;;18.63;63.79;94449.00;5053460;28;20033;-73
2023/08/01 02:17:48;;;;;;;3.67;1.90;;;;;;;18.78;63.35;94453.44;5069962;28;20500;-72
2023/08/01 02:20:13;;;;;;;2.83;2.20;;;;;;;18.71;63.27;94448.88;5070129;28;20028;-72
2023/08/01 02:22:39;;;;;;;2.85;1.90;;;;;;;18.77;63.04;94449.19;5071315;28;20025;-72
2023/08/01 02:25:04;;;;;;;2.60;1.98;;;;;;;18.55;63.35;94462.25;5069957;28;20509;-72
2023/08/01 02:27:30;;;;;;;3.17;2.20;;;;;;;18.48;63.56;94445.59;5069838;28;20062;-72
2023/08/01 02:29:55;;;;;;;2.80;2.03;;;;;;;18.44;63.81;94445.16;5071226;28;20094;-72
2023/08/01 02:32:21;;;;;;;3.15;2.15;;;;;;;18.40;63.52;94448.34;5069674;28;20486;-72
2023/08/01 02:34:47;;;;;;;2.70;2.00;;;;;;;18.40;63.55;94445.72;5052948;28;20040;-72
2023/08/01 02:37:12;;;;;;;2.70;2.13;;;;;;;18.26;63.58;94440.28;5069849;28;20385;-72
2023/08/01 02:39:37;;;;;;;3.33;2.25;;;;;;;18.41;63.95;94450.75;5069659;28;20036;-72
2023/08/01 02:42:03;;;;;;;2.50;2.20;;;;;;;18.36;64.08;94450.53;5070833;28;20482;-72
2023/08/01 02:44:28;;;;;;;2.60;2.17;;;;;;;18.28;63.51;94433.03;5071805;28;20032;-73
2023/08/01 02:46:54;;;;;;;2.40;1.92;;;;;;;18.31;63.95;94440.53;5090128;28;20016;-72
2023/08/01 02:49:19;;;;;;;4.80;2.35;;;;;;;18.29;63.83;94442.53;5089788;28;20039;-72
2023/08/01 02:51:44;;;;;;;2.60;2.20;;;;;;;18.25;63.80;94443.91;5072863;28;20406;-72
2023/08/01 02:54:10;;;;;;;3.42;2.22;;;;;;;18.26;64.05;94444.72;5091443;28;20398;-72
2023/08/01 02:56:40;;;;;;;2.40;2.00;;;;;;;18.24;63.94;94444.09;5073013;28;20028;-72
2023/08/01 02:59:08;;;;;;;2.63;2.25;;;;;;;18.12;63.69;94435.84;5091450;28;20024;-72
2023/08/01 03:01:36;;;;;;;2.50;1.88;;;;;;;18.18;64.04;94450.88;5089762;28;20036;-72
2023/08/01 03:04:03;;;;;;;2.83;2.15;;;;;;;18.15;64.13;94446.00;5090884;28;20682;-72
2023/08/01 03:06:29;;;;;;;2.80;2.03;;;;;;;18.08;64.31;94445.91;5089602;28;20111;-72
2023/08/01 03:08:54;;;;;;;2.83;2.20;;;;;;;18.01;64.87;94447.63;5090851;28;20430;-72
2023/08/01 03:11:19;;;;;;;3.20;2.40;;;;;;;17.91;64.70;94441.81;5089669;28;20028;-72
2023/08/01 03:13:45;;;;;;;4.07;2.55;;;;;;;17.88;65.03;94449.25;5091144;28;20429;-72
2023/08/01 03:16:10;;;;;;;2.53;2.10;;;;;;;17.82;65.08;94448.16;5090840;28;20571;-72
2023/08/01 03:18:36;;;;;;;2.78;2.30;;;;;;;17.72;65.30;94443.16;5092546;28;20031;-72
2023/08/01 03:21:03;;;;;;;3.88;2.53;;;;;;;17.69;65.49;94443.53;5095015;28;20065;-72
2023/08/01 03:23:29;;;;;;;2.75;2.10;;;;;;;17.71;65.47;94435.44;5077021;28;20111;-72
2023/08/01 03:25:54;;;;;;;3.03;2.17;;;;;;;17.57;65.31;94423.94;5077085;28;20027;-72
2023/08/01 03:28:20;;;;;;;3.92;2.67;;;;;;;17.65;65.68;94444.84;5093623;28;20028;-72
2023/08/01 03:30:45;;;;;;;3.20;2.58;;;;;;;17.53;66.06;94448.94;5076682;28;20686;-73
2023/08/01 03:33:10;;;;;;;3.10;2.40;;;;;;;17.47;66.01;94444.38;5093273;28;20042;-72
2023/08/01 03:35:36;;;;;;;3.20;2.42;;;;;;;17.54;66.05;94450.56;5093482;28;20024;-72
2023/08/01 03:38:01;;;;;;;3.50;2.25;;;;;;;17.62;66.17;94456.53;5093352;28;20039;-72
2023/08/01 03:40:27;;;;;;;3.08;2.47;;;;;;;17.52;66.10;94468.28;5076439;28;20032;-72
2023/08/01 03:42:52;;;;;;;4.22;2.40;;;;;;;17.38;66.63;94470.72;5094651;28;20059;-72
2023/08/01 03:45:17;;;;;;;3.42;3.03;;;;;;;17.28;67.81;94475.38;5085315;28;20021;-72
2023/08/01 03:47:43;;;;;;;3.35;2.88;;;;;;;17.46;67.38;94479.50;5064346;28;20462;-72
2023/08/01 03:50:09;;;;;;;4.43;3.67;;;;;;;17.31;68.16;94482.91;5094439;28;20082;-72
2023/08/01 03:52:34;;;;;;;4.25;3.25;;;;;;;17.24;68.37;94475.91;5094057;28;20509;-72
2023/08/01 03:55:00;;;;;;;6.65;4.30;;;;;;;17.27;69.14;94478.97;5059517;28;20024;-72
2023/08/01 03:57:25;;;;;;;4.93;4.03;;;;;;;17.32;69.11;94447.78;5094302;28;20032;-72
2023/08/01 03:59:51;;;;;;;4.95;3.30;;;;;;;17.50;68.21;94473.72;5094185;28;20039;-72
2023/08/01 04:02:16;;;;;;;6.97;4.25;;;;;;;17.40;69.17;94476.59;5092879;28;20382;-72
2023/08/01 04:04:42;;;;;;;5.18;3.95;;;;;;;17.35;69.28;94468.41;5092883;28;20032;-72
2023/08/01 04:07:08;;;;;;;4.70;3.90;;;;;;;17.37;68.87;94470.88;5094107;28;20074;-72
2023/08/01 04:09:33;;;;;;;5.13;4.10;;;;;;;17.43;69.18;94481.47;5094075;28;20428;-72
2023/08/01 04:11:59;;;;;;;3.92;3.05;;;;;;;17.80;67.44;94481.69;5092705;28;20028;-72
2023/08/01 04:14:24;;;;;;;3.78;2.85;;;;;;;17.70;67.44;94474.03;5075730;28;20024;-72
2023/08/01 04:16:50;;;;;;;4.95;3.20;;;;;;;17.89;66.89;94479.81;5092553;28;20032;-73
2023/08/01 04:19:15;;;;;;;4.07;3.15;;;;;;;17.99;66.21;94475.91;5093756;28;20028;-72
2023/08/01 04:21:40;;;;;;;3.67;2.80;;;;;;;17.92;66.43;94476.81;5092678;28;20020;-72
2023/08/01 04:24:06;;;;;;;4.55;2.80;;;;;;;18.03;66.15;94485.06;5094143;28;20032;-72
2023/08/01 04:26:31;;;;;;;4.03;2.92;;;;;;;18.07;65.97;94480.25;5092451;28;20077;-72
2023/08/01 04:28:57;;;;;;;3.20;2.80;;;;;;;18.31;65.72;94477.34;5091812;28;20399;-72
2023/08/01 04:31:22;;;;;;;2.97;2.63;;;;;;;18.49;65.05;94486.66;5093609;28;20036;-73
2023/08/01 04:33:47;;;;;;;3.70;2.85;;;;;;;18.14;65.36;94477.75;5075406;28;20035;-72
2023/08/01 04:36:13;;;;;;;4.60;3.08;;;;;;;18.62;64.47;94486.03;5059647;28;20422;-72
2023/08/01 04:38:38;;;;;;;3.33;2.60;;;;;;;18.74;63.97;94474.84;5055488;28;20094;-72
2023/08/01 04:41:04;;;;;;;3.72;2.70;;;;;;;18.86;63.29;94479.63;5074155;28;20040;-72
2023/08/01 04:43:29;;;;;;;4.25;3.20;;;;;;;19.08;62.93;94480.47;5092232;28;20039;-72
2023/08/01 04:45:54;;;;;;;6.25;3.08;;;;;;;19.08;62.64;94460.22;5087872;28;20037;-72
2023/08/01 04:48:20;;;;;;;5.07;3.35;;;;;;;19.35;62.51;94478.91;5081081;28;20029;-73
2023/08/01 04:50:45;;;;;;;4.20;2.72;;;;;;;19.61;61.52;94487.06;5073078;28;20461;-72
2023/08/01 04:53:11;;;;;;;6.22;2.97;;;;;;;19.96;60.61;94488.97;5067743;28;20058;-72
2023/08/01 04:55:37;;;;;;;3.63;3.00;;;;;;;20.24;59.12;94481.03;5075335;28;20031;-72
2023/08/01 04:58:02;;;;;;;3.42;3.10;;;;;;;20.29;58.96;94475.97;5086212;28;20028;-73
2023/08/01 05:00:27;;;;;;;4.35;2.97;;;;;;;20.52;58.65;94470.41;5042744;28;20044;-72
2023/08/01 05:02:53;;;;;;;4.80;2.97;;;;;;;20.42;58.18;94462.03;5090429;28;20024;-72
2023/08/01 05:05:18;;;;;;;3.40;2.90;;;;;;;20.64;57.81;94460.13;5093003;28;20478;-73
2023/08/01 05:07:43;;;;;;;4.63;3.03;;;;;;;20.91;56.91;94468.94;5091559;28;20028;-73
2023/08/01 05:10:09;;;;;;;4.10;2.95;;;;;;;21.17;57.49;94468.19;5091628;28;20070;-73
2023/08/01 05:12:35;;;;;;;4.25;3.10;;;;;;;21.42;55.61;94471.94;5091447;28;20062;-73
2023/08/01 05:15:00;;;;;;;4.40;2.80;;;;;;;21.38;55.88;94460.13;5092869;28;20020;-73
2023/08/01 05:17:25;;;;;;;3.78;3.22;;;;;;;21.48;55.07;94472.94;5090466;28;20085;-73
2023/08/01 05:19:51;;;;;;;3.38;3.08;;;;;;;21.67;54.32;94471.31;5088168;28;20101;-73
2023/08/01 05:22:16;;;;;;;4.60;3.28;;;;;;;21.31;55.17;94471.66;5090520;28;20031;-73
2023/08/01 05:24:42;;;;;;;5.13;2.92;;;;;;;21.54;54.46;94466.84;5091903;28;20024;-73
2023/08/01 05:27:07;;;;;;;4.50;2.88;;;;;;;21.91;53.94;94453.22;5089756;28;20024;-73
2023/08/01 05:29:32;;;;;;;2.40;2.05;;;;;;;22.18;51.53;94468.03;5071280;28;20032;-74
2023/08/01 05:31:58;;;;;;;6.45;2.92;;;;;;;21.94;53.06;94466.81;5063947;28;20451;-74
2023/08/01 05:34:23;;;;;;;4.22;2.67;;;;;;;22.21;52.12;94470.28;5082993;28;20499;-74
2023/08/01 05:36:50;;;;;;;3.47;2.70;;;;;;;22.43;51.76;94457.59;5055356;28;20032;-74
2023/08/01 05:39:16;;;;;;;2.53;2.00;;;;;;;22.68;48.63;94473.59;5087605;28;20040;-74
2023/08/01 05:41:42;;;;;;;3.58;2.03;;;;;;;22.11;47.18;94427.53;5089938;28;20494;-74
2023/08/01 05:44:07;;;;;;;3.00;2.08;;;;;;;22.18;47.67;94468.03;5078033;28;20024;-74
2023/08/01 05:46:33;;;;;;;2.60;1.83;;;;;;;22.52;47.90;94460.81;5091651;28;20114;-74
2023/08/01 05:48:58;;;;;;;3.10;1.85;;;;;;;22.44;46.93;94450.47;5051415;28;20398;-74
2023/08/01 05:51:23;;;;;;;2.55;1.83;;;;;;;22.77;46.63;94462.75;5091798;28;20047;-74
2023/08/01 05:53:49;;;;;;;4.53;2.20;;;;;;;22.97;46.42;94471.44;5090146;28;20398;-74
2023/08/01 05:56:14;;;;;;;3.72;1.95;;;;;;;23.23;45.24;94461.72;5089109;28;20020;-74
2023/08/01 05:58:40;;;;;;;2.97;1.90;;;;;;;23.00;45.89;94459.63;5071426;28;20033;-74
2023/08/01 06:01:05;;;;;;;3.58;2.08;;;;;;;22.94;46.14;94458.59;5070815;28;20029;-74
2023/08/01 06:03:31;;;;;;;3.40;2.20;;;;;;;22.89;46.87;94455.78;5083874;28;20029;-74
2023/08/01 06:05:56;;;;;;;5.60;2.20;;;;;;;22.67;46.80;94455.25;5085235;28;20032;-74
2023/08/01 06:08:21;;;;;;;3.30;2.13;;;;;;;22.86;46.61;94464.94;5073466;28;20071;-74
2023/08/01 06:10:47;;;;;;;5.07;2.08;;;;;;;23.20;45.91;94460.31;5056467;28;20548;-74
2023/08/01 06:13:12;;;;;;;3.92;2.00;;;;;;;22.85;46.14;94447.44;5089266;28;20101;-74
2023/08/01 06:15:38;;;;;;;3.17;2.20;;;;;;;22.88;46.34;94462.09;5073506;28;20024;-74
2023/08/01 06:18:03;;;;;;;3.85;2.10;;;;;;;23.32;45.35;94463.09;5090473;28;20036;-74
2023/08/01 06:20:28;;;;;;;6.80;2.20;;;;;;;23.44;45.18;94463.22;5090371;28;20028;-74
2023/08/01 06:22:54;;;;;;;4.57;2.10;;;;;;;23.18;45.39;94459.72;5073182;28;20512;-74
2023/08/01 06:25:19;;;;;;;5.70;2.40;;;;;;;23.50;45.05;94449.09;5091474;28;20024;-74
2023/08/01 06:27:45;;;;;;;5.90;2.03;;;;;;;23.89;44.30;94455.94;5088947;28;20327;-74
2023/08/01 06:30:11;;;;;;;4.50;2.20;;;;;;;24.06;44.21;94454.34;5088547;28;20086;-74
2023/08/01 06:32:36;;;;;;;2.85;1.95;;;;;;;24.11;43.70;94455.53;5088215;28;20097;-73
2023/08/01 06:35:02;;;;;;;2.88;1.95;;;;;;;23.85;44.25;94450.28;5089691;28;20040;-73
2023/08/01 06:37:27;;;;;;;5.57;2.38;;;;;;;23.64;44.25;94440.81;5091159;28;20024;-74
2023/08/01 06:39:54;;;;;;;4.00;2.30;;;;;;;23.26;44.92;94445.38;5090331;28;20028;-74
2023/08/01 06:42:19;;;;;;;3.90;2.38;;;;;;;23.29;45.07;94431.72;5088748;28;20024;-74
2023/08/01 06:44:45;;;;;;;4.38;2.70;;;;;;;23.41;44.62;94443.25;5089262;28;20031;-74
2023/08/01 06:47:11;;;;;;;3.05;2.30;;;;;;;23.49;44.00;94445.66;5087652;28;20489;-74
2023/08/01 06:49:36;;;;;;;3.97;2.00;;;;;;;23.83;43.99;94452.31;5070987;28;20032;-74
2023/08/01 06:52:02;;;;;;;4.97;2.50;;;;;;;24.06;42.84;94443.72;5087262;28;20467;-74
2023/08/01 06:54:27;;;;;;;6.18;2.80;;;;;;;23.96;44.45;94434.66;5087529;28;20479;-73
2023/08/01 06:56:53;;;;;;;8.07;3.08;;;;;;;23.69;45.32;94449.97;5089306;28;20410;-74
2023/08/01 06:59:18;;;;;;;4.35;2.78;;;;;;;24.00;44.89;94439.31;5087542;28;20078;-74
2023/08/01 07:01:44;;;;;;;6.28;3.40;;;;;;;23.59;46.54;94435.34;5090070;28;20519;-74
2023/08/01 07:04:13;;;;;;;6.38;3.03;;;;;;;23.57;46.33;94450.69;5089927;28;20088;-73
2023/08/01 07:06:41;;;;;;;6.55;3.65;;;;;;;23.83;46.28;94446.22;5089610;28;20055;-74
2023/08/01 07:09:06;;;;;;;5.22;3.15;;;;;;;23.86;46.45;94445.78;5089632;28;20052;-73
2023/08/01 07:11:32;;;;;;;4.32;2.90;;;;;;;23.98;45.79;94436.06;5090914;28;20031;-73
2023/08/01 07:13:57;;;;;;;5.78;3.08;;;;;;;23.89;45.57;94436.56;5072822;28;20071;-74
2023/08/01 07:16:23;;;;;;;5.32;2.72;;;;;;;24.16;44.96;94439.78;5089598;28;20036;-74
2023/08/01 07:18:48;;;;;;;4.00;2.83;;;;;;;23.43;44.73;94420.00;5054966;28;20028;-74
2023/08/01 07:21:14;;;;;;;7.13;2.67;;;;;;;23.70;44.56;94431.19;5070504;28;20029;-73
2023/08/01 07:23:39;;;;;;;4.28;2.75;;;;;;;23.86;45.49;94427.22;5052736;28;20467;-73
2023/08/01 07:26:04;;;;;;;4.78;3.90;;;;;;;23.74;46.50;94423.66;5052604;28;20086;-73
2023/08/01 07:28:30;;;;;;;5.05;3.50;;;;;;;23.97;46.14;94431.00;5052563;28;20061;-73
2023/08/01 07:31:04;;;;;;;5.60;3.38;;;;;;;23.98;45.55;94425.44;5070535;28;20036;-73
2023/08/01 07:33:29;;;;;;;6.82;3.80;;;;;;;24.22;45.24;94429.09;5052633;28;20039;-73
2023/08/01 07:35:55;;;;;;;6.15;3.20;;;;;;;23.80;44.50;94402.38;5083770;28;20048;-73
2023/08/01 07:38:20;;;;;;;6.25;2.50;;;;;;;23.91;44.38;94416.75;5072321;28;20470;-73
2023/08/01 07:40:46;;;;;;;5.97;2.92;;;;;;;23.95;43.70;94417.94;5090442;28;20233;-73
2023/08/01 07:43:12;;;;;;;4.63;2.95;;;;;;;23.92;44.56;94421.03;5055773;28;20066;-73
2023/08/01 07:45:38;;;;;;;6.78;3.55;;;;;;;24.23;44.19;94419.28;5072758;28;20477;-74
2023/08/01 07:48:03;;;;;;;6.22;3.50;;;;;;;24.26;44.30;94411.69;5089142;28;20039;-73
2023/08/01 07:50:29;;;;;;;4.68;3.30;;;;;;;24.68;43.01;94418.97;5090783;28;20024;-73
2023/08/01 07:52:54;;;;;;;8.95;3.08;;;;;;;24.51;42.93;94416.13;5072424;28;20437;-73
2023/08/01 07:55:20;;;;;;;6.15;3.20;;;;;;;24.49;42.40;94421.69;5089335;28;20464;-73
2023/08/01 07:57:46;;;;;;;4.68;3.40;;;;;;;24.19;43.25;94416.28;5089323;28;20032;-73
2023/08/01 08:00:12;;;;;;;8.50;3.25;;;;;;;24.77;42.36;94422.97;5089223;28;20034;-73
2023/08/01 08:02:37;;;;;;;6.75;3.25;;;;;;;24.88;42.04;94424.88;5089172;28;20028;-73
2023/08/01 08:05:03;;;;;;;4.22;2.90;;;;;;;24.86;42.60;94411.00;5092338;28;20486;-73
2023/08/01 08:07:28;;;;;;;4.70;2.65;;;;;;;25.08;42.40;94402.53;5094101;28;20032;-73
2023/08/01 08:09:55;;;;;;;5.07;2.90;;;;;;;24.93;41.99;94409.06;5059305;28;20035;-73
2023/08/01 08:12:21;;;;;;;5.40;2.63;;;;;;;25.05;41.10;94405.63;5094043;28;20456;-74
2023/08/01 08:14:47;;;;;;;5.25;2.60;;;;;;;25.06;41.76;94393.97;5075916;28;20032;-73
2023/08/01 08:17:12;;;;;;;4.53;2.80;;;;;;;25.10;41.45;94393.28;5075585;28;20101;-73
2023/08/01 08:19:38;;;;;;;3.53;2.53;;;;;;;25.19;41.17;94396.47;5093817;28;20032;-73
2023/08/01 08:22:03;;;;;;;3.63;2.90;;;;;;;25.06;41.23;94401.94;5093877;28;20058;-73
2023/08/01 08:24:29;;;;;;;5.57;2.85;;;;;;;25.11;41.29;94397.56;5093700;28;20027;-73
2023/08/01 08:26:54;;;;;;;6.72;3.08;;;;;;;25.23;41.09;94400.28;5093994;28;20035;-73
2023/08/01 08:29:20;;;;;;;6.50;2.90;;;;;;;25.56;39.80;94383.78;5092468;28;20032;-74
2023/08/01 08:31:45;;;;;;;7.75;2.90;;;;;;;25.52;39.55;94373.84;5075672;28;20020;-73
2023/08/01 08:34:11;;;;;;;3.75;2.92;;;;;;;25.51;39.79;94374.88;5092361;28;20027;-75
2023/08/01 08:36:36;;;;;;;8.45;3.08;;;;;;;25.55;40.71;94389.34;5075445;28;20067;-76
2023/08/01 08:39:03;;;;;;;6.72;2.63;;;;;;;25.50;40.05;94386.56;5092546;28;20028;-76
2023/08/01 08:41:28;;;;;;;3.38;2.35;;;;;;;25.92;38.72;94378.53;5092235;28;20066;-76
2023/08/01 08:44:00;;;;;;;3.78;2.38;;;;;;;26.02;38.91;94371.56;5075573;28;20097;-76
2023/08/01 08:46:29;;;;;;;7.22;2.60;;;;;;;26.03;38.95;94372.38;5092275;28;20029;-76
2023/08/01 08:48:56;;;;;;;7.38;2.60;;;;;;;25.96;38.67;94364.50;5075524;28;20485;-75
2023/08/01 08:51:21;;;;;;;5.03;2.65;;;;;;;26.04;37.92;94352.69;5058612;28;20024;-76
2023/08/01 08:53:47;;;;;;;4.80;2.30;;;;;;;26.15;37.83;94364.38;5091980;28;20461;-76
2023/08/01 08:56:12;;;;;;;4.32;2.38;;;;;;;26.45;37.45;94361.53;5091970;28;20032;-76
2023/08/01 08:58:38;;;;;;;3.78;2.40;;;;;;;26.37;38.30;94368.00;5075222;28;20027;-76
2023/08/01 09:01:04;;;;;;;3.63;2.67;;;;;;;26.61;37.76;94368.00;5093121;28;20036;-76
2023/08/01 09:03:30;;;;;;;4.75;2.35;;;;;;;26.67;37.68;94367.84;5074912;28;20028;-76
2023/08/01 09:06:02;;;;;;;4.22;2.40;;;;;;;26.80;36.61;94358.75;5091845;28;20035;-76
2023/08/01 09:08:28;;;;;;;7.18;2.40;;;;;;;26.91;37.70;94349.06;5074572;28;20048;-76
2023/08/01 09:10:53;;;;;;;4.78;2.70;;;;;;;27.07;37.44;94345.63;5092001;28;20038;-76
2023/08/01 09:13:19;;;;;;;5.38;2.67;;;;;;;27.15;37.38;94350.56;5091654;28;20055;-76
2023/08/01 09:15:44;;;;;;;5.80;2.80;;;;;;;26.80;37.21;94339.28;5074473;28;20036;-76
2023/08/01 09:18:10;;;;;;;7.95;2.92;;;;;;;26.91;37.33;94336.59;5091647;28;20035;-76
2023/08/01 09:20:46;;;;;;;4.05;2.47;;;;;;;26.70;37.26;94340.72;5074665;28;20432;-76
2023/08/01 09:23:11;;;;;;;6.82;2.83;;;;;;;26.84;37.22;94340.44;5074649;28;20059;-76
2023/08/01 09:25:36;;;;;;;4.10;2.78;;;;;;;26.99;37.57;94338.03;5092644;28;20039;-76
2023/08/01 09:28:02;;;;;;;7.00;2.70;;;;;;;26.71;37.23;94310.38;5074535;28;20048;-76
2023/08/01 09:30:31;;;;;;;4.55;3.20;;;;;;;26.61;38.37;94310.19;5091352;28;20413;-76
2023/08/01 09:32:57;;;;;;;4.03;2.70;;;;;;;27.00;37.72;94333.53;5092565;28;20056;-76
2023/08/01 09:35:23;;;;;;;3.65;2.70;;;;;;;27.08;37.37;94325.94;5092388;28;20058;-75
2023/08/01 09:37:48;;;;;;;5.80;2.30;;;;;;;27.36;37.12;94324.28;5091182;28;20036;-76
2023/08/01 09:40:14;;;;;;;3.70;2.38;;;;;;;27.47;36.70;94323.38;5074296;28;20031;-76
2023/08/01 09:42:44;;;;;;;3.50;2.67;;;;;;;27.36;36.64;94306.41;5091160;28;20036;-76
2023/08/01 09:45:13;;;;;;;;;;;;;;;27.46;36.70;94320.94;5092784;28;20111;-76
2023/08/01 09:47:39;;;;;;;4.25;2.53;;;;;;;27.26;36.63;94321.44;5092352;28;19916;-76
2023/08/01 09:50:04;;;;;;;4.82;2.50;;;;;;;27.17;36.91;94321.84;5091032;28;20039;-76
2023/08/01 09:52:30;;;;;;;3.55;2.70;;;;;;;27.23;36.24;94304.06;5073870;28;20520;-75
2023/08/01 09:54:55;;;;;;;3.33;2.80;;;;;;;27.24;37.19;94304.88;5092070;28;20039;-76
2023/08/01 09:57:21;;;;;;;6.03;2.58;;;;;;;27.26;37.05;94305.47;5073887;28;20031;-76
2023/08/01 09:59:46;;;;;;;4.28;2.80;;;;;;;27.31;37.32;94300.22;5073835;28;20077;-76
2023/08/01 10:02:14;;;;;;;4.22;2.75;;;;;;;27.25;36.33;94304.66;5073905;28;20039;-75
2023/08/01 10:04:40;;;;;;;4.78;2.90;;;;;;;27.79;34.82;94291.59;5073988;28;20032;-75
2023/08/01 10:07:11;;;;;;;4.47;2.80;;;;;;;27.63;36.22;94293.19;5073854;28;20028;-76
2023/08/01 10:09:37;;;;;;;4.25;2.47;;;;;;;27.52;36.61;94283.44;5057128;28;20048;-76
2023/08/01 10:12:02;;;;;;;5.40;3.30;;;;;;;27.59;36.57;94273.41;5073496;28;20034;-76
2023/08/01 10:14:28;;;;;;;6.07;2.97;;;;;;;27.53;36.09;94279.72;5090341;28;20493;-76
2023/08/01 10:16:53;;;;;;;3.25;2.45;;;;;;;27.75;35.69;94278.94;5090371;28;20036;-76
2023/08/01 10:19:19;;;;;;;5.75;2.95;;;;;;;27.56;36.41;94273.09;5073337;28;20028;-76
2023/08/01 10:21:45;;;;;;;5.07;2.80;;;;;;;27.83;35.62;94274.03;5091622;28;20108;-76
2023/08/01 10:24:10;;;;;;;4.30;2.90;;;;;;;27.71;35.40;94273.28;5073228;28;20517;-76
2023/08/01 10:26:35;;;;;;;5.95;2.97;;;;;;;27.59;36.79;94277.94;5072988;28;20031;-75
2023/08/01 10:29:02;;;;;;;4.32;3.17;;;;;;;27.84;35.36;94274.84;5073268;28;20414;-76
2023/08/01 10:31:27;;;;;;;3.28;2.92;;;;;;;28.03;35.45;94267.34;5090216;28;20032;-76
2023/08/01 10:33:53;;;;;;;5.60;2.60;;;;;;;27.93;35.98;94267.22;5089856;28;20039;-76
2023/08/01 10:36:29;;;;;;;4.38;3.00;;;;;;;27.78;34.88;94257.13;5073109;28;20414;-76
2023/08/01 10:38:58;;;;;;;5.40;2.80;;;;;;;27.94;35.26;94255.47;5090371;28;20181;-76
2023/08/01 10:41:30;;;;;;;3.40;2.60;;;;;;;27.73;34.91;94254.38;5073189;28;20040;-76
2023/08/01 10:44:09;;;;;;;6.45;2.92;;;;;;;27.79;35.23;94235.56;5090148;28;20021;-76
2023/08/01 10:46:53;;;;;;;6.07;2.67;;;;;;;27.85;35.08;94241.75;5089959;28;20036;-76
2023/08/01 10:49:19;;;;;;;4.05;2.83;;;;;;;27.78;35.58;94239.25;5089709;28;20040;-76
2023/08/01 10:51:45;;;;;;;4.50;2.90;;;;;;;27.82;35.42;94231.59;5056420;28;20417;-76
2023/08/01 10:54:23;;;;;;;5.47;3.00;;;;;;;27.89;34.89;94234.06;5073154;28;20032;-75
2023/08/01 10:56:53;;;;;;;5.93;3.13;;;;;;;27.67;35.46;94224.19;5073251;28;20054;-76
2023/08/01 10:59:18;;;;;;;6.20;2.90;;;;;;;28.05;35.80;94234.00;5091005;28;20032;-76
2023/08/01 11:01:48;;;;;;;4.03;3.10;;;;;;;27.95;35.86;94219.75;5073088;28;20426;-76
2023/08/01 11:04:17;;;;;;;6.85;3.30;;;;;;;28.06;34.99;94232.94;5073553;28;20093;-76
2023/08/01 11:06:44;;;;;;;4.85;3.20;;;;;;;28.07;35.24;94236.41;5073048;28;20115;-76
2023/08/01 11:09:20;;;;;;;4.53;3.00;;;;;;;28.07;34.98;94226.53;5089612;28;20558;-76
2023/08/01 11:11:48;;;;;;;6.38;3.08;;;;;;;28.12;35.16;94211.66;5056233;28;20028;-76
2023/08/01 11:14:13;;;;;;;4.85;3.20;;;;;;;28.02;35.34;94210.47;5089695;28;20086;-76
2023/08/01 11:16:39;;;;;;;6.80;3.20;;;;;;;27.93;34.75;94217.31;5072905;28;20036;-76
2023/08/01 11:19:05;;;;;;;4.57;3.00;;;;;;;28.13;35.83;94207.91;5089802;28;20082;-76
2023/08/01 11:21:30;;;;;;;5.05;3.35;;;;;;;28.07;35.17;94205.19;5089500;28;20112;-76
2023/08/01 11:23:56;;;;;;;4.65;3.05;;;;;;;28.02;34.90;94201.66;5089712;28;20032;-75
2023/08/01 11:26:21;;;;;;;5.25;3.30;;;;;;;28.06;34.24;94195.56;5072733;28;20031;-76
2023/08/01 11:28:47;;;;;;;5.10;3.53;;;;;;;28.16;34.80;94196.72;5072786;28;20020;-76